sensor_id;sensor_type;location;lat;lon;timestamp;temperature;humidity
41447;DHT22;27185;52.040;4.490;2023-06-14T00:01:57;21.80;68.50
41447;DHT22;27185;52.040;4.490;2023-06-14T00:04:43;21.80;68.50
41447;DHT22;27185;52.040;4.490;2023-06-14T00:07:37;21.80;68.60
41447;DHT22;27185;52.040;4.490;2023-06-14T00:10:23;21.70;69.10
41447;DHT22;27185;52.040;4.490;2023-06-14T00:13:10;21.70;68.70
41447;DHT22;27185;52.040;4.490;2023-06-14T00:15:55;21.70;68.80
41447;DHT22;27185;52.040;4.490;2023-06-14T00:18:41;21.70;68.80
41447;DHT22;27185;52.040;4.490;2023-06-14T00:21:27;21.60;68.90
41447;DHT22;27185;52.040;4.490;2023-06-14T00:24:13;21.60;69.20
41447;DHT22;27185;52.040;4.490;2023-06-14T00:26:59;21.50;69.60
41447;DHT22;27185;52.040;4.490;2023-06-14T00:29:45;21.50;69.70
41447;DHT22;27185;52.040;4.490;2023-06-14T00:32:30;21.50;69.60
41447;DHT22;27185;52.040;4.490;2023-06-14T00:35:16;21.50;69.70
41447;DHT22;27185;52.040;4.490;2023-06-14T00:38:02;21.50;69.90
41447;DHT22;27185;52.040;4.490;2023-06-14T00:40:47;21.50;69.80
41447;DHT22;27185;52.040;4.490;2023-06-14T00:43:33;21.40;69.70
41447;DHT22;27185;52.040;4.490;2023-06-14T00:46:20;21.40;70.00
41447;DHT22;27185;52.040;4.490;2023-06-14T00:49:07;21.40;70.00
41447;DHT22;27185;52.040;4.490;2023-06-14T00:51:53;21.30;70.00
41447;DHT22;27185;52.040;4.490;2023-06-14T00:54:40;21.30;70.10
41447;DHT22;27185;52.040;4.490;2023-06-14T00:57:26;21.20;70.00
41447;DHT22;27185;52.040;4.490;2023-06-14T01:00:12;21.20;70.20
41447;DHT22;27185;52.040;4.490;2023-06-14T01:02:58;21.20;70.00
41447;DHT22;27185;52.040;4.490;2023-06-14T01:05:44;21.10;70.00
41447;DHT22;27185;52.040;4.490;2023-06-14T01:12:24;21.00;70.10
41447;DHT22;27185;52.040;4.490;2023-06-14T01:15:15;21.00;70.00
41447;DHT22;27185;52.040;4.490;2023-06-14T01:18:00;20.90;69.70
41447;DHT22;27185;52.040;4.490;2023-06-14T01:20:50;20.90;69.70
41447;DHT22;27185;52.040;4.490;2023-06-14T01:23:35;20.90;69.60
41447;DHT22;27185;52.040;4.490;2023-06-14T01:26:24;20.80;70.00
41447;DHT22;27185;52.040;4.490;2023-06-14T01:29:12;20.70;69.60
41447;DHT22;27185;52.040;4.490;2023-06-14T01:32:02;20.70;69.30
41447;DHT22;27185;52.040;4.490;2023-06-14T01:34:48;20.60;69.20
41447;DHT22;27185;52.040;4.490;2023-06-14T01:37:34;20.60;69.30
41447;DHT22;27185;52.040;4.490;2023-06-14T01:40:21;20.50;69.20
41447;DHT22;27185;52.040;4.490;2023-06-14T01:43:07;20.50;69.20
41447;DHT22;27185;52.040;4.490;2023-06-14T01:45:53;20.40;69.20
41447;DHT22;27185;52.040;4.490;2023-06-14T01:48:40;20.30;69.40
41447;DHT22;27185;52.040;4.490;2023-06-14T01:51:26;20.30;69.30
41447;DHT22;27185;52.040;4.490;2023-06-14T01:54:11;20.30;69.40
41447;DHT22;27185;52.040;4.490;2023-06-14T01:56:57;20.20;69.70
41447;DHT22;27185;52.040;4.490;2023-06-14T01:59:42;20.20;69.70
41447;DHT22;27185;52.040;4.490;2023-06-14T02:02:33;20.10;69.70
41447;DHT22;27185;52.040;4.490;2023-06-14T02:05:19;20.10;69.80
41447;DHT22;27185;52.040;4.490;2023-06-14T02:08:06;20.00;69.80
41447;DHT22;27185;52.040;4.490;2023-06-14T02:10:51;20.00;69.80
41447;DHT22;27185;52.040;4.490;2023-06-14T02:13:37;19.90;69.70
41447;DHT22;27185;52.040;4.490;2023-06-14T02:16:23;19.90;69.80
41447;DHT22;27185;52.040;4.490;2023-06-14T02:19:09;19.90;69.90
41447;DHT22;27185;52.040;4.490;2023-06-14T02:21:56;19.80;69.70
41447;DHT22;27185;52.040;4.490;2023-06-14T02:24:42;19.80;69.90
41447;DHT22;27185;52.040;4.490;2023-06-14T02:27:28;19.80;69.90
41447;DHT22;27185;52.040;4.490;2023-06-14T02:30:13;19.70;69.80
41447;DHT22;27185;52.040;4.490;2023-06-14T02:33:00;19.70;69.90
41447;DHT22;27185;52.040;4.490;2023-06-14T02:35:46;19.60;69.70
41447;DHT22;27185;52.040;4.490;2023-06-14T02:38:32;19.60;69.80
41447;DHT22;27185;52.040;4.490;2023-06-14T02:41:18;19.50;70.00
41447;DHT22;27185;52.040;4.490;2023-06-14T02:44:04;19.50;70.10
41447;DHT22;27185;52.040;4.490;2023-06-14T02:46:50;19.50;70.20
41447;DHT22;27185;52.040;4.490;2023-06-14T02:49:35;19.40;70.20
41447;DHT22;27185;52.040;4.490;2023-06-14T02:52:21;19.40;70.20
41447;DHT22;27185;52.040;4.490;2023-06-14T02:55:07;19.40;70.40
41447;DHT22;27185;52.040;4.490;2023-06-14T02:57:53;19.30;70.50
41447;DHT22;27185;52.040;4.490;2023-06-14T03:00:39;19.30;70.70
41447;DHT22;27185;52.040;4.490;2023-06-14T03:03:26;19.30;71.40
41447;DHT22;27185;52.040;4.490;2023-06-14T03:06:11;19.30;70.90
41447;DHT22;27185;52.040;4.490;2023-06-14T03:09:02;19.20;71.00
41447;DHT22;27185;52.040;4.490;2023-06-14T03:11:51;19.20;71.00
41447;DHT22;27185;52.040;4.490;2023-06-14T03:14:36;19.20;71.20
41447;DHT22;27185;52.040;4.490;2023-06-14T03:17:22;19.20;71.10
41447;DHT22;27185;52.040;4.490;2023-06-14T03:20:09;19.10;71.00
41447;DHT22;27185;52.040;4.490;2023-06-14T03:22:55;19.10;71.00
41447;DHT22;27185;52.040;4.490;2023-06-14T03:25:41;19.10;71.00
41447;DHT22;27185;52.040;4.490;2023-06-14T03:28:27;19.10;71.00
41447;DHT22;27185;52.040;4.490;2023-06-14T03:31:13;19.00;71.00
41447;DHT22;27185;52.040;4.490;2023-06-14T03:33:58;19.00;71.10
41447;DHT22;27185;52.040;4.490;2023-06-14T03:36:45;19.00;71.20
41447;DHT22;27185;52.040;4.490;2023-06-14T03:39:30;19.00;71.30
41447;DHT22;27185;52.040;4.490;2023-06-14T03:42:16;19.00;71.80
41447;DHT22;27185;52.040;4.490;2023-06-14T03:45:02;19.00;71.30
41447;DHT22;27185;52.040;4.490;2023-06-14T03:47:48;18.90;71.30
41447;DHT22;27185;52.040;4.490;2023-06-14T03:50:33;18.90;71.40
41447;DHT22;27185;52.040;4.490;2023-06-14T03:53:19;18.90;71.40
41447;DHT22;27185;52.040;4.490;2023-06-14T03:56:08;18.90;71.50
41447;DHT22;27185;52.040;4.490;2023-06-14T03:58:54;18.80;71.50
41447;DHT22;27185;52.040;4.490;2023-06-14T04:01:40;18.90;71.70
41447;DHT22;27185;52.040;4.490;2023-06-14T04:04:31;18.90;71.80
41447;DHT22;27185;52.040;4.490;2023-06-14T04:07:17;18.90;71.80
41447;DHT22;27185;52.040;4.490;2023-06-14T04:10:07;18.90;71.80
41447;DHT22;27185;52.040;4.490;2023-06-14T04:12:53;18.80;71.80
41447;DHT22;27185;52.040;4.490;2023-06-14T04:15:39;18.80;71.80
41447;DHT22;27185;52.040;4.490;2023-06-14T04:18:27;18.80;71.90
41447;DHT22;27185;52.040;4.490;2023-06-14T04:21:12;18.80;72.00
41447;DHT22;27185;52.040;4.490;2023-06-14T04:23:58;18.80;72.00
41447;DHT22;27185;52.040;4.490;2023-06-14T04:26:48;18.80;72.00
41447;DHT22;27185;52.040;4.490;2023-06-14T04:29:34;18.80;72.10
41447;DHT22;27185;52.040;4.490;2023-06-14T04:32:21;18.90;72.00
41447;DHT22;27185;52.040;4.490;2023-06-14T04:35:07;18.90;72.00
41447;DHT22;27185;52.040;4.490;2023-06-14T04:37:53;18.90;72.10
41447;DHT22;27185;52.040;4.490;2023-06-14T04:40:39;18.90;72.10
41447;DHT22;27185;52.040;4.490;2023-06-14T04:43:28;19.00;72.10
41447;DHT22;27185;52.040;4.490;2023-06-14T04:46:13;19.00;71.90
41447;DHT22;27185;52.040;4.490;2023-06-14T04:49:00;19.10;72.00
41447;DHT22;27185;52.040;4.490;2023-06-14T04:51:47;19.00;71.90
41447;DHT22;27185;52.040;4.490;2023-06-14T04:54:36;19.10;71.80
41447;DHT22;27185;52.040;4.490;2023-06-14T04:57:22;19.10;71.70
41447;DHT22;27185;52.040;4.490;2023-06-14T05:00:08;19.20;71.80
41447;DHT22;27185;52.040;4.490;2023-06-14T05:02:56;19.20;71.70
41447;DHT22;27185;52.040;4.490;2023-06-14T05:05:42;19.20;71.70
41447;DHT22;27185;52.040;4.490;2023-06-14T05:08:27;19.30;71.60
41447;DHT22;27185;52.040;4.490;2023-06-14T05:11:13;19.30;71.70
41447;DHT22;27185;52.040;4.490;2023-06-14T05:13:59;19.40;71.60
41447;DHT22;27185;52.040;4.490;2023-06-14T05:16:45;19.40;71.60
41447;DHT22;27185;52.040;4.490;2023-06-14T05:19:31;19.40;71.40
41447;DHT22;27185;52.040;4.490;2023-06-14T05:22:16;19.50;71.20
41447;DHT22;27185;52.040;4.490;2023-06-14T05:25:02;19.60;71.20
41447;DHT22;27185;52.040;4.490;2023-06-14T05:27:48;19.60;71.10
41447;DHT22;27185;52.040;4.490;2023-06-14T05:30:34;19.60;71.10
41447;DHT22;27185;52.040;4.490;2023-06-14T05:33:20;19.70;71.10
41447;DHT22;27185;52.040;4.490;2023-06-14T05:36:06;19.70;71.00
41447;DHT22;27185;52.040;4.490;2023-06-14T05:38:51;19.80;70.90
41447;DHT22;27185;52.040;4.490;2023-06-14T05:41:42;19.80;70.90
41447;DHT22;27185;52.040;4.490;2023-06-14T05:44:28;19.90;70.90
41447;DHT22;27185;52.040;4.490;2023-06-14T05:47:13;19.80;70.90
41447;DHT22;27185;52.040;4.490;2023-06-14T05:49:59;19.90;71.20
41447;DHT22;27185;52.040;4.490;2023-06-14T05:52:45;19.90;71.00
41447;DHT22;27185;52.040;4.490;2023-06-14T05:55:30;20.00;71.00
41447;DHT22;27185;52.040;4.490;2023-06-14T05:58:16;20.00;71.00
41447;DHT22;27185;52.040;4.490;2023-06-14T06:01:02;20.10;71.00
41447;DHT22;27185;52.040;4.490;2023-06-14T06:03:47;20.10;70.80
41447;DHT22;27185;52.040;4.490;2023-06-14T06:06:33;20.20;70.80
41447;DHT22;27185;52.040;4.490;2023-06-14T06:09:18;20.20;70.70
41447;DHT22;27185;52.040;4.490;2023-06-14T06:12:06;20.30;70.70
41447;DHT22;27185;52.040;4.490;2023-06-14T06:14:52;20.30;70.50
41447;DHT22;27185;52.040;4.490;2023-06-14T06:17:38;20.40;70.10
41447;DHT22;27185;52.040;4.490;2023-06-14T06:20:24;20.50;70.00
41447;DHT22;27185;52.040;4.490;2023-06-14T06:23:17;20.60;69.70
41447;DHT22;27185;52.040;4.490;2023-06-14T06:26:02;20.60;69.50
41447;DHT22;27185;52.040;4.490;2023-06-14T06:28:48;20.60;69.40
41447;DHT22;27185;52.040;4.490;2023-06-14T06:31:34;20.70;69.30
41447;DHT22;27185;52.040;4.490;2023-06-14T06:34:19;20.80;69.30
41447;DHT22;27185;52.040;4.490;2023-06-14T06:37:05;20.80;69.20
41447;DHT22;27185;52.040;4.490;2023-06-14T06:39:51;20.90;69.10
41447;DHT22;27185;52.040;4.490;2023-06-14T06:42:37;21.00;69.00
41447;DHT22;27185;52.040;4.490;2023-06-14T06:45:22;21.00;69.00
41447;DHT22;27185;52.040;4.490;2023-06-14T06:48:08;21.10;69.00
41447;DHT22;27185;52.040;4.490;2023-06-14T06:50:57;21.10;68.80
41447;DHT22;27185;52.040;4.490;2023-06-14T06:53:42;21.20;68.80
41447;DHT22;27185;52.040;4.490;2023-06-14T06:56:29;21.30;68.70
41447;DHT22;27185;52.040;4.490;2023-06-14T06:59:15;21.30;68.60
41447;DHT22;27185;52.040;4.490;2023-06-14T07:02:02;21.40;68.40
41447;DHT22;27185;52.040;4.490;2023-06-14T07:04:48;21.50;68.30
41447;DHT22;27185;52.040;4.490;2023-06-14T07:07:34;21.60;68.10
41447;DHT22;27185;52.040;4.490;2023-06-14T07:10:20;21.70;68.00
41447;DHT22;27185;52.040;4.490;2023-06-14T07:13:05;21.80;67.80
41447;DHT22;27185;52.040;4.490;2023-06-14T07:15:54;21.80;67.80
41447;DHT22;27185;52.040;4.490;2023-06-14T07:18:40;21.90;67.80
41447;DHT22;27185;52.040;4.490;2023-06-14T07:21:26;22.00;67.80
41447;DHT22;27185;52.040;4.490;2023-06-14T07:24:11;22.10;67.80
41447;DHT22;27185;52.040;4.490;2023-06-14T07:26:57;22.20;67.70
41447;DHT22;27185;52.040;4.490;2023-06-14T07:29:42;22.30;67.60
41447;DHT22;27185;52.040;4.490;2023-06-14T07:32:28;22.40;67.70
41447;DHT22;27185;52.040;4.490;2023-06-14T07:35:14;22.50;67.60
41447;DHT22;27185;52.040;4.490;2023-06-14T07:37:59;22.60;67.40
41447;DHT22;27185;52.040;4.490;2023-06-14T07:40:45;22.70;67.30
41447;DHT22;27185;52.040;4.490;2023-06-14T07:43:30;22.80;67.00
41447;DHT22;27185;52.040;4.490;2023-06-14T07:46:16;22.90;67.00
41447;DHT22;27185;52.040;4.490;2023-06-14T07:49:02;23.00;67.00
41447;DHT22;27185;52.040;4.490;2023-06-14T07:51:47;23.10;66.80
41447;DHT22;27185;52.040;4.490;2023-06-14T07:54:33;23.20;66.50
41447;DHT22;27185;52.040;4.490;2023-06-14T07:57:19;23.30;66.40
41447;DHT22;27185;52.040;4.490;2023-06-14T08:00:06;23.40;66.10
41447;DHT22;27185;52.040;4.490;2023-06-14T08:02:52;23.50;66.20
41447;DHT22;27185;52.040;4.490;2023-06-14T08:05:44;23.70;65.80
41447;DHT22;27185;52.040;4.490;2023-06-14T08:08:29;23.80;65.20
41447;DHT22;27185;52.040;4.490;2023-06-14T08:11:15;23.90;64.90
41447;DHT22;27185;52.040;4.490;2023-06-14T08:14:01;24.00;64.80
41447;DHT22;27185;52.040;4.490;2023-06-14T08:16:46;24.10;64.90
41447;DHT22;27185;52.040;4.490;2023-06-14T08:19:32;24.30;64.70
41447;DHT22;27185;52.040;4.490;2023-06-14T08:22:17;24.50;64.40
41447;DHT22;27185;52.040;4.490;2023-06-14T08:25:03;24.80;64.20
41447;DHT22;27185;52.040;4.490;2023-06-14T08:27:49;25.20;63.20
41447;DHT22;27185;52.040;4.490;2023-06-14T08:30:35;25.70;63.00
41447;DHT22;27185;52.040;4.490;2023-06-14T08:33:21;26.10;61.90
41447;DHT22;27185;52.040;4.490;2023-06-14T08:36:06;26.60;60.90
41447;DHT22;27185;52.040;4.490;2023-06-14T08:38:52;27.00;60.10
41447;DHT22;27185;52.040;4.490;2023-06-14T08:41:37;27.40;59.70
41447;DHT22;27185;52.040;4.490;2023-06-14T08:44:23;27.70;58.90
41447;DHT22;27185;52.040;4.490;2023-06-14T08:47:09;28.00;58.30
41447;DHT22;27185;52.040;4.490;2023-06-14T08:49:57;28.30;57.80
41447;DHT22;27185;52.040;4.490;2023-06-14T08:52:45;28.60;57.30
41447;DHT22;27185;52.040;4.490;2023-06-14T08:55:36;28.70;56.90
41447;DHT22;27185;52.040;4.490;2023-06-14T08:58:25;28.90;57.00
41447;DHT22;27185;52.040;4.490;2023-06-14T09:01:11;29.10;56.80
41447;DHT22;27185;52.040;4.490;2023-06-14T09:04:02;29.20;56.30
41447;DHT22;27185;52.040;4.490;2023-06-14T09:06:49;29.40;56.30
41447;DHT22;27185;52.040;4.490;2023-06-14T09:09:41;29.50;56.00
41447;DHT22;27185;52.040;4.490;2023-06-14T09:12:30;29.60;55.60
41447;DHT22;27185;52.040;4.490;2023-06-14T09:15:16;29.60;54.90
41447;DHT22;27185;52.040;4.490;2023-06-14T09:18:02;29.60;53.90
41447;DHT22;27185;52.040;4.490;2023-06-14T09:20:48;29.70;54.20
41447;DHT22;27185;52.040;4.490;2023-06-14T09:23:37;29.70;54.20
41447;DHT22;27185;52.040;4.490;2023-06-14T09:26:23;29.70;54.20
41447;DHT22;27185;52.040;4.490;2023-06-14T09:29:09;29.80;53.80
41447;DHT22;27185;52.040;4.490;2023-06-14T09:31:55;29.90;53.70
41447;DHT22;27185;52.040;4.490;2023-06-14T09:34:41;30.00;53.80
41447;DHT22;27185;52.040;4.490;2023-06-14T09:37:30;30.00;53.50
41447;DHT22;27185;52.040;4.490;2023-06-14T09:40:20;30.00;53.30
41447;DHT22;27185;52.040;4.490;2023-06-14T09:43:06;30.10;53.30
41447;DHT22;27185;52.040;4.490;2023-06-14T09:45:55;30.20;53.70
41447;DHT22;27185;52.040;4.490;2023-06-14T09:48:41;30.30;53.00
41447;DHT22;27185;52.040;4.490;2023-06-14T09:51:28;30.40;53.10
41447;DHT22;27185;52.040;4.490;2023-06-14T09:54:22;30.40;53.10
41447;DHT22;27185;52.040;4.490;2023-06-14T09:57:09;30.50;52.50
41447;DHT22;27185;52.040;4.490;2023-06-14T09:59:57;30.50;52.90
41447;DHT22;27185;52.040;4.490;2023-06-14T10:02:49;30.60;52.90
41447;DHT22;27185;52.040;4.490;2023-06-14T10:05:45;30.70;52.80
41447;DHT22;27185;52.040;4.490;2023-06-14T10:08:31;30.80;52.80
41447;DHT22;27185;52.040;4.490;2023-06-14T10:11:18;31.00;52.50
41447;DHT22;27185;52.040;4.490;2023-06-14T10:14:05;31.20;52.80
41447;DHT22;27185;52.040;4.490;2023-06-14T10:17:01;31.40;52.40
41447;DHT22;27185;52.040;4.490;2023-06-14T10:23:12;31.70;49.80
41447;DHT22;27185;52.040;4.490;2023-06-14T10:25:58;31.90;50.60
41447;DHT22;27185;52.040;4.490;2023-06-14T10:28:54;32.10;51.70
41447;DHT22;27185;52.040;4.490;2023-06-14T10:31:48;32.20;51.30
41447;DHT22;27185;52.040;4.490;2023-06-14T10:34:38;32.20;50.30
41447;DHT22;27185;52.040;4.490;2023-06-14T10:37:24;32.30;49.80
41447;DHT22;27185;52.040;4.490;2023-06-14T10:40:30;32.40;49.40
41447;DHT22;27185;52.040;4.490;2023-06-14T10:43:23;32.50;49.20
41447;DHT22;27185;52.040;4.490;2023-06-14T10:46:18;32.60;47.80
41447;DHT22;27185;52.040;4.490;2023-06-14T10:49:08;32.50;47.70
41447;DHT22;27185;52.040;4.490;2023-06-14T10:51:57;32.50;48.00
41447;DHT22;27185;52.040;4.490;2023-06-14T10:55:06;32.40;47.90
41447;DHT22;27185;52.040;4.490;2023-06-14T10:57:54;32.50;47.90
41447;DHT22;27185;52.040;4.490;2023-06-14T11:00:44;32.60;47.50
41447;DHT22;27185;52.040;4.490;2023-06-14T11:03:36;32.60;47.10
41447;DHT22;27185;52.040;4.490;2023-06-14T11:06:46;32.80;48.10
41447;DHT22;27185;52.040;4.490;2023-06-14T11:12:39;32.90;46.80
41447;DHT22;27185;52.040;4.490;2023-06-14T11:15:32;33.00;47.10
41447;DHT22;27185;52.040;4.490;2023-06-14T11:18:18;33.10;47.20
41447;DHT22;27185;52.040;4.490;2023-06-14T11:21:03;33.20;47.00
41447;DHT22;27185;52.040;4.490;2023-06-14T11:23:52;33.30;47.40
41447;DHT22;27185;52.040;4.490;2023-06-14T11:26:39;33.50;46.80
41447;DHT22;27185;52.040;4.490;2023-06-14T11:29:25;33.80;47.00
41447;DHT22;27185;52.040;4.490;2023-06-14T11:32:11;34.00;46.70
41447;DHT22;27185;52.040;4.490;2023-06-14T11:34:58;34.20;46.20
41447;DHT22;27185;52.040;4.490;2023-06-14T11:37:44;34.30;46.20
41447;DHT22;27185;52.040;4.490;2023-06-14T11:40:30;34.50;45.90
41447;DHT22;27185;52.040;4.490;2023-06-14T11:43:15;34.60;45.00
41447;DHT22;27185;52.040;4.490;2023-06-14T11:46:02;34.50;44.70
41447;DHT22;27185;52.040;4.490;2023-06-14T11:48:48;34.40;44.90
41447;DHT22;27185;52.040;4.490;2023-06-14T11:51:34;34.30;44.80
41447;DHT22;27185;52.040;4.490;2023-06-14T11:54:20;34.20;43.50
41447;DHT22;27185;52.040;4.490;2023-06-14T11:57:06;33.90;44.20
41447;DHT22;27185;52.040;4.490;2023-06-14T11:59:54;33.80;44.90
41447;DHT22;27185;52.040;4.490;2023-06-14T12:02:40;33.90;46.00
41447;DHT22;27185;52.040;4.490;2023-06-14T12:05:26;33.80;44.80
41447;DHT22;27185;52.040;4.490;2023-06-14T12:08:11;33.80;44.20
41447;DHT22;27185;52.040;4.490;2023-06-14T12:11:03;33.70;44.30
41447;DHT22;27185;52.040;4.490;2023-06-14T12:13:49;33.60;43.80
41447;DHT22;27185;52.040;4.490;2023-06-14T12:16:37;33.40;43.80
41447;DHT22;27185;52.040;4.490;2023-06-14T12:19:26;33.30;44.20
41447;DHT22;27185;52.040;4.490;2023-06-14T12:22:12;33.20;44.50
41447;DHT22;27185;52.040;4.490;2023-06-14T12:24:58;33.10;45.00
41447;DHT22;27185;52.040;4.490;2023-06-14T12:27:44;33.20;45.40
41447;DHT22;27185;52.040;4.490;2023-06-14T12:30:29;33.20;44.90
41447;DHT22;27185;52.040;4.490;2023-06-14T12:33:15;33.20;44.70
41447;DHT22;27185;52.040;4.490;2023-06-14T12:36:03;33.10;44.70
41447;DHT22;27185;52.040;4.490;2023-06-14T12:38:49;32.90;45.30
41447;DHT22;27185;52.040;4.490;2023-06-14T12:41:38;32.80;45.20
41447;DHT22;27185;52.040;4.490;2023-06-14T12:44:26;32.70;45.20
41447;DHT22;27185;52.040;4.490;2023-06-14T12:47:12;32.60;45.30
41447;DHT22;27185;52.040;4.490;2023-06-14T12:49:58;32.60;45.70
41447;DHT22;27185;52.040;4.490;2023-06-14T12:52:43;32.60;46.40
41447;DHT22;27185;52.040;4.490;2023-06-14T12:55:29;32.60;46.30
41447;DHT22;27185;52.040;4.490;2023-06-14T12:58:15;32.70;45.20
41447;DHT22;27185;52.040;4.490;2023-06-14T13:01:02;32.70;44.80
41447;DHT22;27185;52.040;4.490;2023-06-14T13:03:48;32.60;45.10
41447;DHT22;27185;52.040;4.490;2023-06-14T13:06:35;32.40;44.90
41447;DHT22;27185;52.040;4.490;2023-06-14T13:09:20;32.40;45.80
41447;DHT22;27185;52.040;4.490;2023-06-14T13:12:06;32.40;45.70
41447;DHT22;27185;52.040;4.490;2023-06-14T13:14:52;32.40;44.60
41447;DHT22;27185;52.040;4.490;2023-06-14T13:17:38;32.40;44.80
41447;DHT22;27185;52.040;4.490;2023-06-14T13:20:23;32.40;45.10
41447;DHT22;27185;52.040;4.490;2023-06-14T13:23:09;32.50;45.30
41447;DHT22;27185;52.040;4.490;2023-06-14T13:25:55;32.60;44.90
41447;DHT22;27185;52.040;4.490;2023-06-14T13:28:40;32.70;45.00
41447;DHT22;27185;52.040;4.490;2023-06-14T13:31:26;32.80;45.50
41447;DHT22;27185;52.040;4.490;2023-06-14T13:34:12;32.90;45.70
41447;DHT22;27185;52.040;4.490;2023-06-14T13:36:58;33.10;45.70
41447;DHT22;27185;52.040;4.490;2023-06-14T13:39:46;33.30;45.70
41447;DHT22;27185;52.040;4.490;2023-06-14T13:42:32;33.60;45.30
41447;DHT22;27185;52.040;4.490;2023-06-14T13:45:17;33.70;45.20
41447;DHT22;27185;52.040;4.490;2023-06-14T13:48:03;33.90;44.80
41447;DHT22;27185;52.040;4.490;2023-06-14T13:50:49;34.00;45.20
41447;DHT22;27185;52.040;4.490;2023-06-14T13:53:34;34.00;44.60
41447;DHT22;27185;52.040;4.490;2023-06-14T13:56:21;34.20;44.30
41447;DHT22;27185;52.040;4.490;2023-06-14T13:59:09;34.30;43.50
41447;DHT22;27185;52.040;4.490;2023-06-14T14:01:54;34.30;43.50
41447;DHT22;27185;52.040;4.490;2023-06-14T14:04:40;34.30;44.20
41447;DHT22;27185;52.040;4.490;2023-06-14T14:07:26;34.20;44.20
41447;DHT22;27185;52.040;4.490;2023-06-14T14:10:12;34.20;44.50
41447;DHT22;27185;52.040;4.490;2023-06-14T14:12:58;34.20;44.40
41447;DHT22;27185;52.040;4.490;2023-06-14T14:15:45;34.30;44.60
41447;DHT22;27185;52.040;4.490;2023-06-14T14:18:30;34.40;44.20
41447;DHT22;27185;52.040;4.490;2023-06-14T14:21:16;34.40;43.90
41447;DHT22;27185;52.040;4.490;2023-06-14T14:24:01;34.40;43.90
41447;DHT22;27185;52.040;4.490;2023-06-14T14:26:47;34.50;44.40
41447;DHT22;27185;52.040;4.490;2023-06-14T14:29:33;34.50;43.60
41447;DHT22;27185;52.040;4.490;2023-06-14T14:32:20;34.40;43.30
41447;DHT22;27185;52.040;4.490;2023-06-14T14:35:06;34.50;43.60
41447;DHT22;27185;52.040;4.490;2023-06-14T14:37:52;34.30;43.90
41447;DHT22;27185;52.040;4.490;2023-06-14T14:40:38;34.20;43.90
41447;DHT22;27185;52.040;4.490;2023-06-14T14:43:24;34.10;43.70
41447;DHT22;27185;52.040;4.490;2023-06-14T14:46:10;34.10;44.30
41447;DHT22;27185;52.040;4.490;2023-06-14T14:48:56;34.20;44.70
41447;DHT22;27185;52.040;4.490;2023-06-14T14:51:41;34.40;44.30
41447;DHT22;27185;52.040;4.490;2023-06-14T14:54:27;34.50;43.90
41447;DHT22;27185;52.040;4.490;2023-06-14T14:57:14;34.80;44.20
41447;DHT22;27185;52.040;4.490;2023-06-14T15:00:00;34.90;43.00
41447;DHT22;27185;52.040;4.490;2023-06-14T15:02:45;34.90;43.10
41447;DHT22;27185;52.040;4.490;2023-06-14T15:05:31;34.90;43.60
41447;DHT22;27185;52.040;4.490;2023-06-14T15:08:16;34.90;43.70
41447;DHT22;27185;52.040;4.490;2023-06-14T15:11:02;35.00;43.80
41447;DHT22;27185;52.040;4.490;2023-06-14T15:13:48;35.10;43.10
41447;DHT22;27185;52.040;4.490;2023-06-14T15:16:34;35.10;43.10
41447;DHT22;27185;52.040;4.490;2023-06-14T15:19:19;35.00;43.00
41447;DHT22;27185;52.040;4.490;2023-06-14T15:22:05;35.00;43.10
41447;DHT22;27185;52.040;4.490;2023-06-14T15:24:51;35.00;43.30
41447;DHT22;27185;52.040;4.490;2023-06-14T15:27:36;34.90;43.20
41447;DHT22;27185;52.040;4.490;2023-06-14T15:30:22;34.90;42.50
41447;DHT22;27185;52.040;4.490;2023-06-14T15:33:07;34.70;43.00
41447;DHT22;27185;52.040;4.490;2023-06-14T15:35:53;34.60;43.40
41447;DHT22;27185;52.040;4.490;2023-06-14T15:38:38;34.50;43.20
41447;DHT22;27185;52.040;4.490;2023-06-14T15:41:24;34.60;43.30
41447;DHT22;27185;52.040;4.490;2023-06-14T15:44:10;34.60;43.30
41447;DHT22;27185;52.040;4.490;2023-06-14T15:46:56;34.70;43.00
41447;DHT22;27185;52.040;4.490;2023-06-14T15:49:42;34.70;42.80
41447;DHT22;27185;52.040;4.490;2023-06-14T15:52:27;34.80;43.10
41447;DHT22;27185;52.040;4.490;2023-06-14T15:55:13;34.80;43.30
41447;DHT22;27185;52.040;4.490;2023-06-14T15:57:59;35.00;43.30
41447;DHT22;27185;52.040;4.490;2023-06-14T16:00:44;35.20;43.10
41447;DHT22;27185;52.040;4.490;2023-06-14T16:03:30;35.50;42.90
41447;DHT22;27185;52.040;4.490;2023-06-14T16:06:15;35.60;42.20
41447;DHT22;27185;52.040;4.490;2023-06-14T16:09:02;35.60;42.40
41447;DHT22;27185;52.040;4.490;2023-06-14T16:11:48;35.70;42.80
41447;DHT22;27185;52.040;4.490;2023-06-14T16:14:34;35.70;43.30
41447;DHT22;27185;52.040;4.490;2023-06-14T16:17:19;35.90;42.60
41447;DHT22;27185;52.040;4.490;2023-06-14T16:20:05;35.90;42.00
41447;DHT22;27185;52.040;4.490;2023-06-14T16:22:51;35.90;41.90
41447;DHT22;27185;52.040;4.490;2023-06-14T16:25:37;35.80;41.80
41447;DHT22;27185;52.040;4.490;2023-06-14T16:28:22;35.70;42.00
41447;DHT22;27185;52.040;4.490;2023-06-14T16:31:12;35.50;42.10
41447;DHT22;27185;52.040;4.490;2023-06-14T16:34:02;35.30;41.90
41447;DHT22;27185;52.040;4.490;2023-06-14T16:36:50;35.20;42.00
41447;DHT22;27185;52.040;4.490;2023-06-14T16:39:35;35.00;42.20
41447;DHT22;27185;52.040;4.490;2023-06-14T16:42:21;34.90;42.60
41447;DHT22;27185;52.040;4.490;2023-06-14T16:45:07;34.90;42.70
41447;DHT22;27185;52.040;4.490;2023-06-14T16:47:53;34.80;42.20
41447;DHT22;27185;52.040;4.490;2023-06-14T16:50:38;34.80;42.20
41447;DHT22;27185;52.040;4.490;2023-06-14T16:53:24;34.70;42.50
41447;DHT22;27185;52.040;4.490;2023-06-14T16:56:09;34.70;42.50
41447;DHT22;27185;52.040;4.490;2023-06-14T16:58:55;34.60;42.40
41447;DHT22;27185;52.040;4.490;2023-06-14T17:01:41;34.50;42.50
41447;DHT22;27185;52.040;4.490;2023-06-14T17:04:27;34.50;42.80
41447;DHT22;27185;52.040;4.490;2023-06-14T17:07:12;34.60;42.80
41447;DHT22;27185;52.040;4.490;2023-06-14T17:09:58;34.60;43.40
41447;DHT22;27185;52.040;4.490;2023-06-14T17:12:43;34.50;42.30
41447;DHT22;27185;52.040;4.490;2023-06-14T17:15:29;34.50;42.80
41447;DHT22;27185;52.040;4.490;2023-06-14T17:18:14;34.50;42.90
41447;DHT22;27185;52.040;4.490;2023-06-14T17:21:00;34.50;42.90
41447;DHT22;27185;52.040;4.490;2023-06-14T17:23:45;34.50;42.90
41447;DHT22;27185;52.040;4.490;2023-06-14T17:26:31;34.50;43.00
41447;DHT22;27185;52.040;4.490;2023-06-14T17:29:17;34.40;43.20
41447;DHT22;27185;52.040;4.490;2023-06-14T17:32:03;34.40;43.30
41447;DHT22;27185;52.040;4.490;2023-06-14T17:34:49;34.50;43.40
41447;DHT22;27185;52.040;4.490;2023-06-14T17:37:35;34.50;43.50
41447;DHT22;27185;52.040;4.490;2023-06-14T17:40:20;34.50;42.70
41447;DHT22;27185;52.040;4.490;2023-06-14T17:43:06;34.40;42.60